Time;durP1;ratioP1;P1;durP2;ratioP2;P2;SDS_P1;SDS_P2;PMS_P1;PMS_P2;Temp;Humidity;BMP_temperature;BMP_pressure;BME280_temperature;BME280_humidity;BME280_pressure;Samples;Min_cycle;Max_cycle;Signal;HPM_P1;HPM_P2
2023/12/23 00:00:56;;;;;;;2.28;1.55;;;;;;;7.82;46.10;98303.59;5030555;28;20033;-36
2023/12/23 00:03:22;;;;;;;5.38;1.70;;;;;;;8.18;44.28;98301.94;5030503;28;20134;-39
2023/12/23 00:05:47;;;;;;;2.55;1.70;;;;;;;7.96;44.61;98290.22;5030403;28;20063;-36
2023/12/23 00:08:12;;;;;;;2.90;1.80;;;;;;;8.25;44.73;98295.78;5030181;28;20030;-37
2023/12/23 00:10:38;;;;;;;2.95;1.70;;;;;;;8.13;44.89;98299.19;5030304;28;20511;-37
2023/12/23 00:13:03;;;;;;;3.22;1.80;;;;;;;8.07;45.05;98308.00;5030256;28;20037;-36
2023/12/23 00:15:29;;;;;;;2.10;1.50;;;;;;;8.06;45.28;98309.03;5030277;28;20026;-26
2023/12/23 00:17:54;;;;;;;3.15;1.70;;;;;;;7.89;45.92;98306.16;5030347;28;20018;-26
2023/12/23 00:20:19;;;;;;;3.38;1.75;;;;;;;7.88;46.01;98301.09;5030544;28;20058;-26
2023/12/23 00:22:45;;;;;;;3.13;1.77;;;;;;;7.94;45.88;98300.19;5030570;28;20374;-26
2023/12/23 00:25:10;;;;;;;2.90;1.90;;;;;;;8.17;45.35;98281.00;5030522;28;20021;-26
2023/12/23 00:27:35;;;;;;;4.45;1.85;;;;;;;8.18;45.27;98283.41;5030137;28;20045;-26
2023/12/23 00:30:01;;;;;;;3.03;1.70;;;;;;;8.03;45.53;98285.63;5030489;28;20490;-26
2023/12/23 00:32:26;;;;;;;3.45;1.70;;;;;;;8.17;45.07;98283.66;5030114;28;20048;-26
2023/12/23 00:34:52;;;;;;;3.45;2.00;;;;;;;8.02;45.94;98270.78;5030340;27;20077;-26
2023/12/23 00:37:17;;;;;;;2.50;1.80;;;;;;;8.10;46.35;98265.16;5029441;28;20477;-27
2023/12/23 00:39:43;;;;;;;3.13;1.85;;;;;;;8.11;45.30;98263.31;5029811;28;20021;-26
2023/12/23 00:42:08;;;;;;;3.53;2.03;;;;;;;8.06;46.03;98266.66;5029078;28;20553;-26
2023/12/23 00:44:34;;;;;;;5.68;2.00;;;;;;;7.95;46.16;98276.13;5030244;28;20029;-25
2023/12/23 00:46:59;;;;;;;4.30;2.17;;;;;;;7.95;46.09;98275.34;5030137;28;20044;-27
2023/12/23 00:49:24;;;;;;;6.22;2.13;;;;;;;7.92;47.98;98268.66;5029815;28;20061;-25
2023/12/23 00:51:50;;;;;;;2.85;1.85;;;;;;;8.02;46.21;98255.69;5030027;28;20107;-26
2023/12/23 00:54:17;;;;;;;4.15;2.28;;;;;;;7.95;46.86;98262.09;5030215;27;20029;-26
2023/12/23 00:56:42;;;;;;;3.67;2.10;;;;;;;7.91;47.48;98264.38;5030164;28;20029;-26
2023/12/23 00:59:07;;;;;;;4.30;2.10;;;;;;;7.60;47.55;98249.47;5029806;28;20032;-25
2023/12/23 01:01:33;;;;;;;3.17;2.17;;;;;;;7.63;47.92;98241.06;5029804;28;20034;-25
2023/12/23 01:03:58;;;;;;;3.97;1.90;;;;;;;7.58;48.95;98233.78;5029592;28;20081;-25
2023/12/23 01:06:23;;;;;;;5.70;2.00;;;;;;;7.43;48.00;98236.00;5029299;28;20032;-25
2023/12/23 01:08:49;;;;;;;3.30;2.28;;;;;;;7.72;48.08;98223.06;5029275;28;20029;-23
2023/12/23 01:11:14;;;;;;;5.30;2.67;;;;;;;7.82;47.59;98223.31;5029132;28;20029;-25
2023/12/23 01:13:40;;;;;;;3.67;2.47;;;;;;;7.85;47.97;98211.50;5029665;28;20108;-26
2023/12/23 01:16:05;;;;;;;7.55;4.28;;;;;;;7.75;47.91;98210.19;5029753;28;20391;-25
2023/12/23 01:18:30;;;;;;;5.45;3.13;;;;;;;7.51;47.80;98208.44;5029571;28;20025;-25
2023/12/23 01:20:56;;;;;;;5.47;3.00;;;;;;;7.53;48.58;98215.09;5029472;27;20033;-25
2023/12/23 01:23:21;;;;;;;4.53;2.40;;;;;;;7.53;48.12;98209.81;5029544;28;20081;-25
2023/12/23 01:25:46;;;;;;;3.10;2.20;;;;;;;7.43;49.06;98220.13;5029605;28;20031;-25
2023/12/23 01:28:12;;;;;;;4.15;2.85;;;;;;;7.69;49.00;98220.84;5029344;28;20163;-25
2023/12/23 01:30:39;;;;;;;4.10;2.30;;;;;;;7.42;48.44;98232.56;5029218;28;20106;-25
2023/12/23 01:33:04;;;;;;;4.82;2.20;;;;;;;7.37;50.21;98232.38;5028537;28;20025;-25
2023/12/23 01:35:29;;;;;;;3.47;2.13;;;;;;;7.32;49.61;98242.00;5028764;28;20037;-26
2023/12/23 01:37:55;;;;;;;2.40;1.80;;;;;;;7.44;48.99;98232.31;5028904;28;20028;-25
2023/12/23 01:40:20;;;;;;;4.05;2.20;;;;;;;7.28;50.01;98223.13;5028772;27;20028;-25
2023/12/23 01:42:46;;;;;;;3.30;1.80;;;;;;;7.24;49.33;98214.81;5029149;28;20104;-26
2023/12/23 01:45:11;;;;;;;4.00;2.25;;;;;;;7.30;49.07;98202.53;5029414;28;20188;-25
2023/12/23 01:47:41;;;;;;;3.28;2.20;;;;;;;7.37;49.74;98213.06;5028780;28;20042;-25
2023/12/23 01:50:09;;;;;;;3.03;1.80;;;;;;;7.50;48.08;98201.50;5029086;28;20025;-26
2023/12/23 01:52:36;;;;;;;3.78;1.90;;;;;;;7.41;48.99;98201.81;5029229;28;20108;-25
2023/12/23 01:55:03;;;;;;;2.88;1.80;;;;;;;7.58;48.58;98199.38;5028855;28;20061;-25
2023/12/23 01:57:28;;;;;;;3.55;2.05;;;;;;;7.59;48.63;98197.53;5096103;28;20025;-25
2023/12/23 01:59:54;;;;;;;5.03;2.53;;;;;;;7.53;49.46;98198.41;5028871;28;20048;-25
2023/12/23 02:02:21;;;;;;;3.25;2.30;;;;;;;7.43;48.42;98197.09;5028322;28;20022;-26
2023/12/23 02:04:46;;;;;;;4.10;2.30;;;;;;;7.45;51.11;98194.22;5028513;28;20049;-26
2023/12/23 02:07:12;;;;;;;5.00;2.40;;;;;;;7.20;49.42;98191.66;5029047;27;20435;-26
2023/12/23 02:09:37;;;;;;;2.80;2.10;;;;;;;7.39;49.34;98176.59;5029076;27;20023;-26
2023/12/23 02:12:25;;;;;;;5.20;2.20;;;;;;;7.34;49.60;98179.09;5029122;28;20021;-25
2023/12/23 02:15:10;;;;;;;3.55;2.03;;;;;;;7.38;48.70;98201.44;5029382;28;20033;-25
2023/12/23 02:17:37;;;;;;;3.05;1.90;;;;;;;7.55;48.59;98217.53;5029258;28;20133;-26
2023/12/23 02:20:03;;;;;;;3.13;1.90;;;;;;;7.69;48.76;98216.38;5029280;28;20037;-25
2023/12/23 02:22:29;;;;;;;3.40;2.22;;;;;;;7.53;48.53;98214.31;5028342;28;20025;-25
2023/12/23 02:24:55;;;;;;;4.35;2.90;;;;;;;7.72;47.89;98215.91;5029206;28;20025;-25
2023/12/23 02:27:29;;;;;;;5.30;3.33;;;;;;;7.56;48.65;98224.47;5097265;28;20426;-26
2023/12/23 02:29:58;;;;;;;5.60;2.80;;;;;;;7.68;49.29;98211.28;5029039;28;20112;-28
2023/12/23 02:32:25;;;;;;;4.75;2.80;;;;;;;7.74;48.88;98195.31;5029135;28;20025;-26
2023/12/23 02:34:52;;;;;;;4.78;2.50;;;;;;;7.30;50.53;98181.34;5029058;28;20042;-26
2023/12/23 02:37:17;;;;;;;4.15;2.60;;;;;;;7.23;51.59;98180.63;5029014;28;20068;-26
2023/12/23 02:39:43;;;;;;;7.80;2.60;;;;;;;7.10;51.24;98178.94;5028847;28;20105;-26
2023/12/23 02:42:08;;;;;;;5.82;2.70;;;;;;;7.26;52.28;98192.63;5028456;28;20493;-26
2023/12/23 02:44:34;;;;;;;7.50;3.50;;;;;;;7.28;50.84;98179.97;5029015;28;20057;-26
2023/12/23 02:46:59;;;;;;;7.90;4.03;;;;;;;7.17;51.70;98184.16;5029009;28;20026;-26
2023/12/23 02:49:24;;;;;;;7.22;4.38;;;;;;;7.18;50.45;98189.22;5028842;28;20432;-26
2023/12/23 02:51:50;;;;;;;7.90;4.10;;;;;;;7.26;51.46;98176.75;5096958;28;20112;-26
2023/12/23 02:54:15;;;;;;;7.93;3.55;;;;;;;7.04;52.63;98170.03;5028733;27;20057;-26
2023/12/23 02:56:40;;;;;;;7.03;3.88;;;;;;;7.15;51.22;98165.84;5028943;28;20047;-26
2023/12/23 02:59:06;;;;;;;6.47;4.00;;;;;;;6.97;52.65;98171.13;5028721;28;20060;-26
2023/12/23 03:01:31;;;;;;;6.63;4.50;;;;;;;6.94;53.16;98176.84;5028651;28;20025;-26
2023/12/23 03:03:56;;;;;;;6.07;3.33;;;;;;;6.83;52.49;98158.03;5028697;28;20025;-26
2023/12/23 03:06:22;;;;;;;6.80;3.42;;;;;;;6.81;53.74;98181.22;5028525;28;20082;-26
2023/12/23 03:08:47;;;;;;;5.53;2.72;;;;;;;6.77;55.24;98161.53;5028495;28;20018;-26
2023/12/23 03:11:12;;;;;;;4.55;2.83;;;;;;;6.88;51.78;98173.25;5028537;28;20022;-26
2023/12/23 03:13:38;;;;;;;6.30;2.20;;;;;;;6.57;52.44;98145.84;5028572;28;20022;-26
2023/12/23 03:16:17;;;;;;;7.65;2.50;;;;;;;6.70;52.79;98167.91;5096297;28;20025;-26
2023/12/23 03:18:43;;;;;;;10.02;2.72;;;;;;;6.69;53.49;98148.59;5028307;28;20025;-26
2023/12/23 03:21:08;;;;;;;6.63;2.53;;;;;;;6.67;53.59;98147.19;5028474;28;20053;-25
2023/12/23 03:23:34;;;;;;;5.68;2.42;;;;;;;6.77;52.55;98126.34;5028141;28;20060;-26
2023/12/23 03:26:00;;;;;;;3.45;2.35;;;;;;;6.70;53.11;98155.50;5028227;28;20517;-26
2023/12/23 03:28:25;;;;;;;4.43;2.25;;;;;;;6.72;53.32;98134.94;5028438;28;20017;-26
2023/12/23 03:30:50;;;;;;;6.93;2.50;;;;;;;6.83;52.55;98110.44;5028347;28;20026;-27
2023/12/23 03:33:16;;;;;;;7.93;2.75;;;;;;;6.77;53.29;98129.78;5028075;28;20032;-26
2023/12/23 03:35:41;;;;;;;7.22;3.00;;;;;;;6.77;54.09;98136.94;5028184;28;20018;-25
2023/12/23 03:38:07;;;;;;;6.32;2.95;;;;;;;6.43;54.93;98142.50;5027635;28;20433;-26
2023/12/23 03:40:32;;;;;;;10.18;5.18;;;;;;;6.69;54.02;98130.09;5027218;28;20014;-26
2023/12/23 03:42:58;;;;;;;11.10;4.35;;;;;;;6.75;54.52;98128.41;5027512;28;20044;-26
2023/12/23 03:45:23;;;;;;;9.35;3.92;;;;;;;6.68;54.50;98122.38;5028035;28;20106;-26
2023/12/23 03:47:49;;;;;;;8.98;3.80;;;;;;;6.60;56.01;98126.09;5027631;28;20054;-26
2023/12/23 03:50:15;;;;;;;7.65;3.95;;;;;;;6.72;54.44;98112.97;5027701;28;20148;-28
2023/12/23 03:52:40;;;;;;;7.88;4.07;;;;;;;6.51;55.69;98120.28;5027219;28;20040;-27
2023/12/23 03:55:07;;;;;;;5.45;3.40;;;;;;;6.36;54.35;98125.91;5027470;28;20025;-26
2023/12/23 03:57:32;;;;;;;6.55;3.28;;;;;;;6.00;56.58;98113.38;5027894;28;20044;-27
2023/12/23 03:59:58;;;;;;;6.97;3.10;;;;;;;6.07;55.96;98087.69;5028046;28;20377;-27
2023/12/23 04:02:24;;;;;;;8.68;2.88;;;;;;;6.10;57.30;98129.53;5027706;28;20021;-27
2023/12/23 04:04:49;;;;;;;9.48;3.30;;;;;;;6.13;57.68;98126.47;5027814;28;20441;-27
2023/12/23 04:07:14;;;;;;;6.18;2.70;;;;;;;5.95;57.92;98127.19;5027408;28;20042;-27
2023/12/23 04:09:40;;;;;;;8.88;3.10;;;;;;;6.04;58.50;98117.19;5027782;28;20095;-26
2023/12/23 04:12:06;;;;;;;5.72;3.10;;;;;;;6.34;58.12;98112.09;5026641;28;20090;-26
2023/12/23 04:14:32;;;;;;;10.32;3.83;;;;;;;6.35;58.11;98111.06;5027462;28;20432;-26
2023/12/23 04:16:58;;;;;;;10.32;3.85;;;;;;;6.06;57.82;98097.47;5027402;28;20028;-26
2023/12/23 04:19:23;;;;;;;9.27;3.33;;;;;;;6.05;58.17;98111.72;5024867;28;20097;-26
2023/12/23 04:21:49;;;;;;;8.20;3.65;;;;;;;6.23;58.09;98118.88;5026799;28;20101;-26
2023/12/23 04:24:14;;;;;;;12.43;3.63;;;;;;;6.02;59.07;98120.03;5026567;28;20022;-26
2023/12/23 04:26:40;;;;;;;7.07;3.00;;;;;;;6.07;57.31;98122.03;5020640;28;20036;-25
2023/12/23 04:29:05;;;;;;;9.30;3.28;;;;;;;6.01;57.82;98117.63;5016065;28;20028;-25
2023/12/23 04:31:30;;;;;;;8.80;3.38;;;;;;;6.33;57.23;98114.94;5018841;28;20021;-25
2023/12/23 04:33:56;;;;;;;6.20;3.38;;;;;;;6.09;57.69;98114.69;5014435;28;20029;-25
2023/12/23 04:36:23;;;;;;;6.82;3.42;;;;;;;6.02;57.90;98092.84;5018135;28;20495;-25
2023/12/23 04:38:49;;;;;;;10.35;3.50;;;;;;;6.01;58.66;98121.06;5080858;28;20018;-24
2023/12/23 04:41:14;;;;;;;7.00;3.28;;;;;;;5.99;58.73;98101.97;5025148;28;20054;-26
2023/12/23 04:43:39;;;;;;;5.80;3.38;;;;;;;5.89;59.12;98133.31;5027445;28;20029;-25
2023/12/23 04:46:05;;;;;;;7.75;3.50;;;;;;;6.16;59.09;98107.53;5029399;28;20486;-25
2023/12/23 04:48:30;;;;;;;8.52;3.72;;;;;;;6.32;57.82;98110.69;5098785;28;20052;-25
2023/12/23 04:50:56;;;;;;;15.35;6.47;;;;;;;6.17;57.94;98095.97;5030496;28;20108;-25
2023/12/23 04:53:24;;;;;;;19.40;6.35;;;;;;;6.12;58.25;98097.63;5030351;28;20029;-25
2023/12/23 04:55:50;;;;;;;15.45;5.35;;;;;;;6.44;56.87;98101.84;5030347;28;20456;-25
2023/12/23 04:58:15;;;;;;;17.30;5.38;;;;;;;6.28;56.53;98109.50;5029644;28;20077;-26
2023/12/23 05:00:41;;;;;;;13.07;5.22;;;;;;;5.90;58.60;98120.91;5030423;28;20109;-25
2023/12/23 05:03:06;;;;;;;8.13;4.38;;;;;;;5.78;58.75;98116.28;5030389;28;20397;-25
2023/12/23 05:05:31;;;;;;;10.57;3.83;;;;;;;5.73;58.29;98116.13;5030333;28;20028;-25
2023/12/23 05:07:57;;;;;;;10.70;3.53;;;;;;;5.55;58.70;98105.47;5030612;28;20131;-26
2023/12/23 05:10:22;;;;;;;8.45;4.20;;;;;;;5.67;58.13;98091.41;5029564;28;20025;-26
2023/12/23 05:12:48;;;;;;;10.23;3.97;;;;;;;5.63;58.19;98095.47;5030213;28;20025;-26
2023/12/23 05:15:13;;;;;;;10.48;3.83;;;;;;;5.48;58.93;98129.22;5030405;28;20025;-26
2023/12/23 05:17:39;;;;;;;10.00;3.90;;;;;;;5.50;59.90;98124.56;5030201;28;20093;-26
2023/12/23 05:20:10;;;;;;;8.38;4.07;;;;;;;5.54;60.18;98112.59;5029950;28;20079;-26
2023/12/23 05:22:35;;;;;;;10.18;4.07;;;;;;;5.78;60.28;98108.38;5030119;28;20028;-26
2023/12/23 05:25:01;;;;;;;9.20;4.30;;;;;;;6.03;59.58;98121.66;5030187;28;20017;-26
2023/12/23 05:27:27;;;;;;;8.40;4.68;;;;;;;6.05;59.51;98111.72;5030160;28;20029;-26
2023/12/23 05:29:55;;;;;;;10.15;4.78;;;;;;;5.77;60.06;98117.34;5030261;27;20074;-27
2023/12/23 05:32:20;;;;;;;10.05;4.55;;;;;;;5.83;60.37;98118.31;5030074;28;20541;-26
2023/12/23 05:34:46;;;;;;;10.88;4.75;;;;;;;5.90;60.04;98097.13;5098739;28;20025;-26
2023/12/23 05:37:11;;;;;;;8.85;4.28;;;;;;;5.87;59.52;98099.19;5030042;28;20092;-25
2023/12/23 05:39:38;;;;;;;13.10;4.53;;;;;;;5.94;59.61;98095.69;5030037;28;20141;-26
2023/12/23 05:42:03;;;;;;;10.13;4.35;;;;;;;5.91;60.06;98104.06;5029768;28;20021;-25
2023/12/23 05:44:30;;;;;;;12.18;4.85;;;;;;;5.91;59.27;98089.00;5030330;28;20086;-26
2023/12/23 05:46:56;;;;;;;7.85;4.32;;;;;;;5.94;58.71;98072.75;5030124;28;20037;-26
2023/12/23 05:49:21;;;;;;;15.60;5.78;;;;;;;6.02;58.90;98077.00;5130208;27;20429;-26
2023/12/23 05:51:47;;;;;;;14.70;5.93;;;;;;;5.96;60.90;98080.47;5134399;27;20034;-26
2023/12/23 05:54:13;;;;;;;18.75;7.68;;;;;;;5.78;59.66;98105.72;5134141;27;20196;-27
2023/12/23 05:56:38;;;;;;;14.52;5.15;;;;;;;5.59;60.87;98118.03;5134198;27;20038;-25
2023/12/23 05:59:03;;;;;;;13.02;5.25;;;;;;;6.01;59.70;98113.13;5133721;27;20102;-26
2023/12/23 06:01:29;;;;;;;12.25;5.32;;;;;;;5.84;60.76;98102.25;5133941;27;20383;-26
2023/12/23 06:03:54;;;;;;;14.55;8.05;;;;;;;5.82;61.45;98121.97;5134273;27;20023;-27
2023/12/23 06:06:19;;;;;;;10.52;5.40;;;;;;;5.59;60.90;98131.22;5133813;27;20313;-27
2023/12/23 06:08:45;;;;;;;15.18;5.88;;;;;;;5.77;59.69;98137.63;5133524;27;20054;-27
2023/12/23 06:11:10;;;;;;;11.40;6.22;;;;;;;5.70;62.37;98127.13;5133707;27;20076;-28
2023/12/23 06:13:36;;;;;;;15.07;6.30;;;;;;;5.74;60.70;98130.13;5115787;27;20120;-26
2023/12/23 06:16:06;;;;;;;11.82;5.57;;;;;;;6.17;59.72;98145.31;5134002;27;20474;-27
2023/12/23 06:18:32;;;;;;;11.88;5.03;;;;;;;6.54;58.88;98130.41;5133786;27;20023;-26
2023/12/23 06:20:57;;;;;;;14.23;5.88;;;;;;;6.91;57.65;98156.94;5133873;27;20539;-27
2023/12/23 06:23:22;;;;;;;13.77;6.07;;;;;;;7.14;56.62;98145.72;5133926;27;20029;-27
2023/12/23 06:25:48;;;;;;;10.40;4.97;;;;;;;7.51;55.93;98152.84;5133330;27;20030;-25
2023/12/23 06:28:13;;;;;;;10.57;5.63;;;;;;;7.85;54.00;98164.63;5133669;27;20121;-26
2023/12/23 06:30:38;;;;;;;8.88;5.38;;;;;;;7.74;53.09;98152.94;5133540;27;20054;-26
2023/12/23 06:33:04;;;;;;;17.45;7.30;;;;;;;7.85;54.14;98174.41;5133252;27;20047;-26
2023/12/23 06:35:29;;;;;;;29.67;14.32;;;;;;;7.59;54.01;98155.16;5133594;27;20050;-26
2023/12/23 06:37:54;;;;;;;22.38;9.05;;;;;;;7.45;55.11;98138.66;5133627;27;20042;-26
2023/12/23 06:40:20;;;;;;;26.85;10.52;;;;;;;7.30;56.22;98152.25;5133344;27;20462;-26
2023/12/23 06:42:45;;;;;;;28.58;9.50;;;;;;;7.60;57.70;98149.66;5133244;27;20390;-26
2023/12/23 06:45:12;;;;;;;31.25;10.20;;;;;;;7.76;56.03;98126.25;5133345;27;20059;-25
2023/12/23 06:47:37;;;;;;;26.75;10.45;;;;;;;7.94;54.67;98131.50;5107208;27;20037;-26
2023/12/23 06:50:03;;;;;;;26.48;10.05;;;;;;;8.14;57.03;98173.59;5029065;28;20025;-26
2023/12/23 06:52:28;;;;;;;28.00;11.48;;;;;;;8.19;55.62;98152.53;5029102;28;20366;-27
2023/12/23 06:54:54;;;;;;;26.02;11.93;;;;;;;8.21;55.43;98176.97;5029080;28;20484;-26
2023/12/23 06:57:19;;;;;;;27.17;11.25;;;;;;;9.21;53.10;98179.84;5028632;28;20017;-26
2023/12/23 06:59:45;;;;;;;24.70;10.57;;;;;;;10.09;53.52;98171.75;5028697;28;20030;-27
2023/12/23 07:02:11;;;;;;;27.63;10.43;;;;;;;10.93;51.19;98166.50;5093733;28;20530;-27
2023/12/23 07:04:36;;;;;;;27.52;10.82;;;;;;;10.41;48.56;98150.78;5028724;28;20017;-28
2023/12/23 07:07:01;;;;;;;25.13;11.23;;;;;;;10.57;47.98;98134.03;5028782;28;20029;-27
2023/12/23 07:09:27;;;;;;;23.10;11.00;;;;;;;11.11;48.35;98120.16;5096747;28;20536;-26
2023/12/23 07:11:52;;;;;;;23.80;10.20;;;;;;;10.75;45.99;98142.81;5028843;28;20022;-27
2023/12/23 07:14:17;;;;;;;26.38;10.88;;;;;;;9.98;50.00;98157.47;5028573;28;20021;-26
2023/12/23 07:16:43;;;;;;;26.42;11.40;;;;;;;10.69;50.50;98163.22;5028627;28;20470;-27
2023/12/23 07:19:09;;;;;;;28.55;10.85;;;;;;;10.58;46.66;98190.69;5028419;28;20101;-28
2023/12/23 07:21:34;;;;;;;24.60;11.82;;;;;;;10.01;48.00;98149.00;5028832;28;20026;-28
2023/12/23 07:24:00;;;;;;;13.93;8.07;;;;;;;10.56;69.49;98121.78;5027830;28;20026;-24
2023/12/23 07:26:25;;;;;;;25.25;10.35;;;;;;;11.24;45.95;98102.22;5027968;28;20397;-27
2023/12/23 07:28:51;;;;;;;26.58;10.50;;;;;;;11.34;44.88;98135.09;5028167;28;20025;-27
2023/12/23 07:31:16;;;;;;;26.65;10.80;;;;;;;11.20;45.65;98152.50;5028361;28;20072;-27
2023/12/23 07:33:42;;;;;;;25.15;10.60;;;;;;;11.50;44.50;98167.28;5028342;28;20529;-27
2023/12/23 07:36:08;;;;;;;31.52;12.25;;;;;;;11.23;44.92;98175.16;5028608;28;20029;-26
2023/12/23 07:38:33;;;;;;;22.45;10.88;;;;;;;11.54;44.24;98131.88;5028124;28;20457;-27
2023/12/23 07:40:59;;;;;;;23.17;10.57;;;;;;;11.68;43.37;98142.94;5027622;28;20473;-25
2023/12/23 07:43:24;;;;;;;23.90;10.60;;;;;;;11.88;43.00;98115.72;5027310;28;20441;-26
2023/12/23 07:45:50;;;;;;;19.45;9.93;;;;;;;12.11;42.06;98121.84;5027496;28;20092;-26
2023/12/23 07:48:15;;;;;;;25.40;11.02;;;;;;;12.20;42.26;98119.50;5026900;28;20401;-27
2023/12/23 07:50:40;;;;;;;19.95;10.02;;;;;;;12.24;42.32;98115.28;5034255;28;20046;-27
2023/12/23 07:53:06;;;;;;;17.23;9.45;;;;;;;12.21;41.89;98119.25;5027030;28;20149;-26
2023/12/23 07:55:31;;;;;;;23.52;10.55;;;;;;;11.83;42.35;98120.19;5027600;28;20045;-27
2023/12/23 07:57:57;;;;;;;18.02;10.13;;;;;;;10.88;45.13;98118.50;5027649;28;20030;-27
2023/12/23 08:00:23;;;;;;;23.90;10.32;;;;;;;10.57;45.42;98143.88;5020088;28;20496;-27
2023/12/23 08:02:48;;;;;;;30.67;12.63;;;;;;;11.45;43.82;98133.38;5026932;28;20033;-27
2023/12/23 08:05:14;;;;;;;39.38;12.48;;;;;;;10.62;44.87;98175.06;5024987;28;20028;-28
2023/12/23 08:07:42;;;;;;;28.67;12.05;;;;;;;10.24;46.23;98171.22;5027041;28;20480;-27
2023/12/23 08:10:08;;;;;;;23.58;10.90;;;;;;;9.90;47.25;98168.47;5026953;28;20082;-27
2023/12/23 08:12:33;;;;;;;28.27;11.90;;;;;;;10.69;46.06;98192.47;5024833;28;20034;-27
2023/12/23 08:14:58;;;;;;;25.38;12.48;;;;;;;10.59;46.23;98157.75;5027208;28;20082;-26
2023/12/23 08:17:24;;;;;;;35.90;13.40;;;;;;;10.11;46.82;98175.78;5026961;28;20021;-26
2023/12/23 08:19:49;;;;;;;42.08;15.85;;;;;;;10.04;47.85;98159.19;5027642;28;20090;-26
2023/12/23 08:22:14;;;;;;;36.10;13.80;;;;;;;10.65;46.54;98188.69;5029705;28;20060;-25
2023/12/23 08:24:40;;;;;;;33.40;13.48;;;;;;;10.31;46.90;98171.91;5030052;28;20026;-27
2023/12/23 08:27:06;;;;;;;43.63;14.63;;;;;;;10.29;48.24;98184.59;5030245;28;20022;-27
2023/12/23 08:29:32;;;;;;;28.02;11.65;;;;;;;9.87;48.27;98182.25;5030538;28;20055;-27
2023/12/23 08:31:58;;;;;;;30.20;12.60;;;;;;;10.07;48.65;98172.00;5030441;28;20719;-27
2023/12/23 08:34:24;;;;;;;31.92;13.35;;;;;;;10.15;48.73;98190.22;5031167;28;20090;-27
2023/12/23 08:36:49;;;;;;;26.85;12.73;;;;;;;10.56;48.52;98208.75;5031013;28;20033;-27
2023/12/23 08:39:14;;;;;;;26.55;12.10;;;;;;;11.14;47.83;98206.72;5030467;28;20049;-27
2023/12/23 08:41:40;;;;;;;27.40;11.90;;;;;;;11.59;47.51;98205.72;5030175;28;20481;-27
2023/12/23 08:44:05;;;;;;;22.25;9.40;;;;;;;11.89;43.71;98169.84;5030049;28;20106;-27
2023/12/23 08:46:31;;;;;;;21.23;7.95;;;;;;;12.42;42.55;98178.91;5028186;28;20082;-27
2023/12/23 08:48:57;;;;;;;23.33;8.38;;;;;;;12.28;43.32;98191.88;5020846;28;20042;-27
2023/12/23 08:51:23;;;;;;;27.25;9.68;;;;;;;12.41;43.64;98195.97;5027693;28;20497;-27
2023/12/23 08:53:48;;;;;;;26.50;9.02;;;;;;;12.44;43.16;98192.81;5030552;27;20445;-27
2023/12/23 08:56:14;;;;;;;19.52;9.00;;;;;;;12.47;43.56;98168.31;5030455;28;20034;-28
2023/12/23 08:58:39;;;;;;;17.17;7.35;;;;;;;13.17;41.92;98186.13;5030258;28;20028;-27
2023/12/23 09:01:05;;;;;;;15.02;6.15;;;;;;;14.04;39.30;98173.97;5030351;28;20121;-27
2023/12/23 09:03:31;;;;;;;16.23;6.40;;;;;;;13.77;40.85;98173.38;5029957;28;20029;-27
2023/12/23 09:05:58;;;;;;;13.27;6.55;;;;;;;14.24;49.15;98170.53;5030065;28;20048;-27
2023/12/23 09:08:24;;;;;;;14.60;5.35;;;;;;;15.52;40.83;98174.97;5029223;28;20026;-26
2023/12/23 09:10:50;;;;;;;9.32;4.32;;;;;;;16.05;35.68;98169.13;5029744;28;20021;-27
2023/12/23 09:13:15;;;;;;;10.35;4.57;;;;;;;16.36;35.02;98168.94;5029071;28;20374;-26
2023/12/23 09:15:41;;;;;;;17.23;7.32;;;;;;;16.62;34.30;98158.81;5026336;28;20026;-27
2023/12/23 09:18:06;;;;;;;14.25;6.80;;;;;;;17.28;33.77;98180.78;5028557;28;20113;-26
2023/12/23 09:20:32;;;;;;;16.85;8.63;;;;;;;17.12;38.55;98189.00;5029126;27;20067;-26
2023/12/23 09:22:58;;;;;;;19.10;10.80;;;;;;;17.87;58.55;98187.63;5029690;28;20025;-27
2023/12/23 09:25:23;;;;;;;24.35;10.10;;;;;;;18.92;39.73;98183.94;5097383;28;20179;-28
2023/12/23 09:27:49;;;;;;;27.75;10.15;;;;;;;19.32;34.28;98193.22;5028582;28;20026;-28
2023/12/23 09:30:15;;;;;;;21.20;9.50;;;;;;;19.42;32.44;98194.91;5028753;28;20025;-28
2023/12/23 09:32:40;;;;;;;26.55;10.05;;;;;;;19.49;31.20;98183.72;5022803;28;20030;-28
2023/12/23 09:35:06;;;;;;;27.38;9.75;;;;;;;19.19;32.03;98182.41;5009105;28;20033;-26
2023/12/23 09:37:31;;;;;;;20.33;9.20;;;;;;;19.46;30.66;98187.03;5009278;28;20118;-28
2023/12/23 09:39:59;;;;;;;16.25;8.02;;;;;;;19.45;30.99;98190.81;5009179;28;20034;-28
2023/12/23 09:42:24;;;;;;;31.38;8.30;;;;;;;19.33;31.31;98200.19;5024828;28;20503;-27
2023/12/23 09:44:50;;;;;;;15.63;7.20;;;;;;;19.73;30.60;98210.53;5028998;28;20349;-27
2023/12/23 09:47:16;;;;;;;17.85;7.78;;;;;;;19.99;30.42;98231.59;5028081;28;20389;-27
2023/12/23 09:49:41;;;;;;;24.35;10.07;;;;;;;20.03;29.82;98229.88;5027104;28;20037;-27
2023/12/23 09:52:06;;;;;;;19.58;7.35;;;;;;;20.02;30.79;98250.69;5015270;28;20121;-28
2023/12/23 09:54:38;;;;;;;16.25;8.52;;;;;;;19.65;30.48;98248.97;5028725;28;20026;-27
2023/12/23 09:57:03;;;;;;;20.73;7.90;;;;;;;19.11;31.37;98246.72;5028243;28;20033;-28
2023/12/23 09:59:30;;;;;;;21.30;6.80;;;;;;;18.70;32.19;98249.22;5028070;28;20024;-27
2023/12/23 10:01:56;;;;;;;15.85;6.30;;;;;;;19.18;31.99;98254.41;5029009;28;20029;-27
2023/12/23 10:04:21;;;;;;;10.80;5.50;;;;;;;18.53;32.52;98255.94;5028421;28;20096;-27
2023/12/23 10:06:47;;;;;;;11.45;5.32;;;;;;;18.81;32.27;98249.88;5015375;28;20030;-27
2023/12/23 10:09:12;;;;;;;6.63;3.88;;;;;;;18.20;32.71;98236.22;5028226;28;20526;-28
2023/12/23 10:11:37;;;;;;;10.95;4.97;;;;;;;18.04;33.19;98251.75;5027581;27;20029;-27
2023/12/23 10:14:03;;;;;;;9.77;5.07;;;;;;;17.08;34.74;98263.22;5028210;28;20074;-27
2023/12/23 10:16:28;;;;;;;7.70;3.60;;;;;;;16.84;36.58;98278.47;5028895;28;20108;-26
2023/12/23 10:18:55;;;;;;;12.00;2.35;;;;;;;16.09;37.78;98295.47;5028825;28;20029;-28
2023/12/23 10:21:21;;;;;;;5.70;2.05;;;;;;;15.61;39.40;98283.28;5028671;28;20034;-27
2023/12/23 10:23:46;;;;;;;7.22;2.10;;;;;;;15.32;41.36;98296.44;5028414;28;20565;-26
2023/12/23 10:26:14;;;;;;;6.68;2.20;;;;;;;15.52;40.92;98314.38;5028792;28;20029;-28
2023/12/23 10:28:42;;;;;;;5.30;2.30;;;;;;;15.44;41.72;98329.16;5028255;28;20025;-26
2023/12/23 10:31:12;;;;;;;6.40;2.22;;;;;;;15.22;42.81;98315.22;5028628;28;20030;-27
2023/12/23 10:33:44;;;;;;;4.32;2.03;;;;;;;14.60;44.66;98343.78;5028709;28;20132;-28
2023/12/23 10:36:12;;;;;;;3.85;2.00;;;;;;;14.26;45.49;98318.22;5028720;28;20391;-28
2023/12/23 10:38:41;;;;;;;5.88;2.13;;;;;;;14.15;46.26;98369.28;5028533;28;20078;-27
2023/12/23 10:41:18;;;;;;;6.15;2.45;;;;;;;14.08;46.09;98378.31;5028210;28;20025;-28
2023/12/23 10:43:44;;;;;;;5.05;1.90;;;;;;;13.89;47.79;98374.47;5017831;28;20363;-27
2023/12/23 10:46:11;;;;;;;4.93;2.00;;;;;;;13.59;49.56;98410.63;5027526;28;20025;-27
2023/12/23 10:48:39;;;;;;;3.80;1.90;;;;;;;13.51;50.00;98445.03;5028517;28;20045;-27
2023/12/23 10:51:05;;;;;;;3.70;1.85;;;;;;;13.18;51.47;98454.88;5015211;28;20029;-28
2023/12/23 10:53:32;;;;;;;4.65;1.98;;;;;;;13.42;50.99;98461.56;5028818;28;20033;-27
2023/12/23 10:55:58;;;;;;;2.58;1.50;;;;;;;12.99;53.06;98470.41;5028906;28;20067;-26
2023/12/23 10:58:25;;;;;;;5.07;2.20;;;;;;;12.75;52.73;98453.84;5028338;28;20017;-27
2023/12/23 11:00:54;;;;;;;5.85;1.80;;;;;;;12.72;53.04;98487.19;5028598;28;20026;-28
2023/12/23 11:03:20;;;;;;;4.13;1.50;;;;;;;12.40;53.28;98501.16;5028548;28;20127;-27
2023/12/23 11:05:47;;;;;;;1.65;1.25;;;;;;;12.28;54.43;98503.13;5028627;28;20078;-28
2023/12/23 11:08:19;;;;;;;4.43;1.50;;;;;;;11.93;54.10;98494.34;5028332;28;20026;-28
2023/12/23 11:10:46;;;;;;;2.60;1.48;;;;;;;12.07;53.53;98502.84;5028012;28;20085;-28
2023/12/23 11:13:13;;;;;;;4.97;1.60;;;;;;;12.10;53.09;98530.84;5027800;28;20029;-27
2023/12/23 11:15:39;;;;;;;2.60;1.50;;;;;;;12.13;52.97;98544.53;5028392;28;20034;-26
2023/12/23 11:18:05;;;;;;;2.70;1.48;;;;;;;11.47;54.90;98543.34;5028129;28;20029;-27
2023/12/23 11:20:35;;;;;;;4.40;1.30;;;;;;;11.22;55.61;98549.81;5028186;28;20029;-27
2023/12/23 11:23:26;;;;;;;2.47;1.23;;;;;;;11.46;56.09;98557.72;5026721;27;20061;-28
2023/12/23 11:25:52;;;;;;;;;;;;;;;11.91;54.22;98567.59;5008681;28;20049;-28
2023/12/23 11:28:19;;;;;;;5.07;1.30;;;;;;;11.71;54.91;98562.72;5008509;28;19910;-28